createdAt,value
2022-11-30T00:01:25.073Z,77.35
2022-11-30T00:03:55.024Z,77.40
2022-11-30T00:06:24.330Z,77.30
2022-11-30T00:08:53.612Z,77.12
2022-11-30T00:11:23.450Z,77.10
2022-11-30T00:13:51.830Z,77.17
2022-11-30T00:16:19.935Z,77.37
2022-11-30T00:18:48.113Z,77.31
2022-11-30T00:21:17.807Z,77.09
2022-11-30T00:23:47.889Z,77.19
2022-11-30T00:26:18.721Z,77.44
2022-11-30T00:28:47.845Z,77.57
2022-11-30T00:31:18.130Z,77.29
2022-11-30T00:33:46.900Z,77.04
2022-11-30T00:36:20.309Z,76.89
2022-11-30T00:38:50.092Z,77.23
2022-11-30T00:41:19.692Z,77.03
2022-11-30T00:43:48.039Z,76.97
2022-11-30T00:46:16.178Z,76.94
2022-11-30T00:48:44.490Z,77.31
2022-11-30T00:51:13.308Z,77.28
2022-11-30T00:53:42.124Z,77.24
2022-11-30T00:56:11.110Z,77.32
2022-11-30T00:58:39.273Z,77.44
2022-11-30T01:01:08.450Z,77.19
2022-11-30T01:03:37.033Z,77.25
2022-11-30T01:06:08.309Z,77.23
2022-11-30T01:08:37.412Z,77.07
2022-11-30T01:11:17.618Z,77.24
2022-11-30T01:13:45.687Z,77.11
2022-11-30T01:16:17.755Z,77.31
2022-11-30T01:18:46.895Z,77.35
2022-11-30T01:21:17.570Z,77.45
2022-11-30T01:23:46.416Z,77.25
2022-11-30T01:26:14.819Z,76.98
2022-11-30T01:28:44.472Z,76.87
2022-11-30T01:31:14.943Z,76.76
2022-11-30T01:33:43.623Z,76.91
2022-11-30T01:36:14.552Z,76.98
2022-11-30T01:38:55.781Z,76.93
2022-11-30T01:41:25.820Z,77.12
2022-11-30T01:43:56.873Z,77.46
2022-11-30T01:46:44.190Z,77.25
2022-11-30T01:49:32.007Z,77.42
2022-11-30T01:52:07.697Z,77.39
2022-11-30T01:55:14.660Z,77.15
2022-11-30T01:57:48.497Z,77.24
2022-11-30T02:00:17.221Z,77.50
2022-11-30T02:03:11.442Z,77.85
2022-11-30T02:05:41.597Z,77.88
2022-11-30T02:08:11.243Z,77.52
2022-11-30T02:10:43.638Z,78.03
2022-11-30T02:13:17.576Z,77.71
2022-11-30T02:16:27.429Z,77.76
2022-11-30T02:19:24.754Z,77.50
2022-11-30T02:22:20.786Z,77.60
2022-11-30T02:25:26.383Z,77.48
2022-11-30T02:28:18.991Z,77.50
2022-11-30T02:30:52.391Z,77.57
2022-11-30T02:33:25.986Z,77.66
2022-11-30T02:35:55.986Z,77.42
2022-11-30T02:38:26.986Z,77.58
2022-11-30T02:40:55.441Z,77.85
2022-11-30T02:43:25.874Z,77.89
2022-11-30T02:46:28.030Z,77.80
2022-11-30T02:49:05.489Z,77.94
2022-11-30T02:51:38.265Z,77.79
2022-11-30T02:54:06.377Z,77.57
2022-11-30T02:56:34.662Z,77.29
2022-11-30T02:59:02.827Z,77.12
2022-11-30T03:01:30.961Z,77.48
2022-11-30T03:03:58.976Z,77.40
2022-11-30T03:06:26.953Z,77.50
2022-11-30T03:08:54.981Z,77.40
2022-11-30T03:11:23.050Z,77.64
2022-11-30T03:13:51.157Z,77.75
2022-11-30T03:16:19.241Z,77.87
2022-11-30T03:18:47.314Z,77.48
2022-11-30T03:21:15.355Z,77.48
2022-11-30T03:23:43.431Z,77.25
2022-11-30T03:26:11.590Z,77.69
2022-11-30T03:28:39.672Z,77.54
2022-11-30T03:31:12.774Z,77.54
2022-11-30T03:33:42.348Z,77.48
2022-11-30T03:36:12.069Z,77.30
2022-11-30T03:38:40.625Z,77.66
2022-11-30T03:41:12.382Z,77.62
2022-11-30T03:43:41.050Z,77.05
2022-11-30T03:46:09.539Z,77.02
2022-11-30T03:48:38.465Z,77.46
2022-11-30T03:51:07.470Z,77.52
2022-11-30T03:53:35.484Z,77.42
2022-11-30T03:56:06.358Z,77.25
2022-11-30T03:58:35.261Z,77.37
2022-11-30T04:01:24.231Z,77.27
2022-11-30T04:03:53.003Z,77.07
2022-11-30T04:06:21.903Z,77.02
2022-11-30T04:08:50.358Z,76.89
2022-11-30T04:11:18.566Z,77.11
2022-11-30T04:13:46.644Z,77.16
2022-11-30T04:16:21.107Z,77.26
2022-11-30T04:18:49.155Z,77.35
2022-11-30T04:21:17.183Z,77.25
2022-11-30T04:23:45.469Z,77.14
2022-11-30T04:26:15.184Z,77.19
2022-11-30T04:28:43.704Z,77.31
2022-11-30T04:31:12.661Z,77.19
2022-11-30T04:33:40.716Z,76.87
2022-11-30T04:36:17.799Z,76.72
2022-11-30T04:38:46.564Z,76.55
2022-11-30T04:41:14.957Z,76.82
2022-11-30T04:43:42.949Z,76.56
2022-11-30T04:46:11.140Z,76.63
2022-11-30T04:48:39.265Z,77.04
2022-11-30T04:51:08.995Z,76.96
2022-11-30T04:53:38.291Z,77.29
2022-11-30T04:56:08.136Z,77.36
2022-11-30T04:58:36.702Z,77.26
2022-11-30T05:01:05.270Z,77.08
2022-11-30T05:03:33.456Z,77.13
2022-11-30T05:06:01.950Z,77.12
2022-11-30T05:08:30.524Z,77.01
2022-11-30T05:10:58.854Z,77.00
2022-11-30T05:13:27.271Z,76.95
2022-11-30T05:15:55.345Z,76.82
2022-11-30T05:18:23.718Z,76.60
2022-11-30T05:20:53.585Z,76.82
2022-11-30T05:23:22.203Z,76.97
2022-11-30T05:25:50.350Z,76.86
2022-11-30T05:28:18.509Z,77.29
2022-11-30T05:30:46.811Z,77.13
2022-11-30T05:33:15.097Z,77.16
2022-11-30T05:35:43.692Z,77.25
2022-11-30T05:38:11.788Z,77.00
2022-11-30T05:40:39.819Z,77.25
2022-11-30T05:43:07.834Z,76.89
2022-11-30T05:45:35.930Z,77.07
2022-11-30T05:48:04.110Z,76.75
2022-11-30T05:50:32.200Z,76.95
2022-11-30T05:53:01.118Z,76.81
2022-11-30T05:55:29.809Z,76.75
2022-11-30T05:57:58.107Z,76.75
2022-11-30T06:00:26.669Z,76.78
2022-11-30T06:02:58.791Z,76.75
2022-11-30T06:05:28.113Z,76.61
2022-11-30T06:07:59.736Z,76.42
2022-11-30T06:10:27.957Z,76.76
2022-11-30T06:12:56.022Z,76.37
2022-11-30T06:15:24.065Z,76.15
2022-11-30T06:17:52.176Z,76.38
2022-11-30T06:20:20.189Z,76.89
2022-11-30T06:22:48.231Z,77.04
2022-11-30T06:25:16.306Z,77.11
2022-11-30T06:27:44.337Z,76.62
2022-11-30T06:30:13.061Z,76.62
2022-11-30T06:32:45.440Z,76.66
2022-11-30T06:35:14.275Z,76.67
2022-11-30T06:37:43.296Z,76.88
2022-11-30T06:40:13.140Z,76.53
2022-11-30T06:42:41.128Z,77.07
2022-11-30T06:45:09.823Z,77.02
2022-11-30T06:47:37.873Z,76.95
2022-11-30T06:50:08.330Z,77.22
2022-11-30T06:52:36.367Z,77.20
2022-11-30T06:55:04.697Z,77.08
2022-11-30T06:57:32.752Z,76.93
2022-11-30T07:00:00.786Z,77.11
2022-11-30T07:02:28.871Z,76.75
2022-11-30T07:04:57.354Z,76.48
2022-11-30T07:07:25.571Z,76.48
2022-11-30T07:09:53.694Z,76.68
2022-11-30T07:12:21.719Z,76.89
2022-11-30T07:14:53.042Z,76.74
2022-11-30T07:17:21.107Z,76.35
2022-11-30T07:19:49.280Z,76.51
2022-11-30T07:22:17.271Z,76.57
2022-11-30T07:25:03.885Z,76.60
2022-11-30T07:27:31.935Z,76.50
2022-11-30T07:30:00.018Z,76.37
2022-11-30T07:32:28.097Z,76.19
2022-11-30T07:34:56.151Z,76.31
2022-11-30T07:37:24.523Z,76.41
2022-11-30T07:39:52.624Z,76.31
2022-11-30T07:42:20.759Z,76.27
2022-11-30T07:44:55.264Z,76.28
2022-11-30T07:47:26.723Z,76.59
2022-11-30T07:49:54.819Z,77.08
2022-11-30T07:52:23.179Z,76.84
2022-11-30T07:54:51.227Z,76.62
2022-11-30T07:57:19.358Z,76.49
2022-11-30T07:59:47.627Z,76.23
2022-11-30T08:02:16.065Z,76.10
2022-11-30T08:04:44.467Z,76.19
2022-11-30T08:07:16.225Z,76.45
2022-11-30T08:09:45.321Z,76.48
2022-11-30T08:12:13.398Z,76.43
2022-11-30T08:15:17.521Z,76.20
2022-11-30T08:17:29.495Z,76.12
2022-11-30T08:19:57.515Z,76.35
2022-11-30T08:22:25.527Z,75.86
2022-11-30T08:24:53.610Z,76.25
2022-11-30T08:27:21.770Z,76.12
2022-11-30T08:29:49.835Z,75.71
2022-11-30T08:32:18.459Z,75.80
2022-11-30T08:34:47.222Z,76.22
2022-11-30T08:37:15.432Z,76.05
2022-11-30T08:39:43.413Z,76.19
2022-11-30T08:42:12.456Z,75.98
2022-11-30T08:44:40.525Z,76.11
2022-11-30T08:47:08.660Z,75.64
2022-11-30T08:49:36.774Z,75.89
2022-11-30T08:52:20.378Z,76.03
2022-11-30T08:54:49.047Z,75.66
2022-11-30T08:57:20.083Z,75.92
2022-11-30T08:59:48.674Z,75.95
2022-11-30T09:02:19.645Z,75.89
2022-11-30T09:04:49.600Z,75.71
2022-11-30T09:07:18.247Z,75.47
2022-11-30T09:09:46.621Z,75.64
2022-11-30T09:12:14.989Z,76.17
2022-11-30T09:14:43.022Z,76.39
2022-11-30T09:17:11.162Z,76.25
2022-11-30T09:19:39.763Z,76.20
2022-11-30T09:22:07.810Z,76.39
2022-11-30T09:24:36.297Z,75.90
2022-11-30T09:27:04.345Z,75.93
2022-11-30T09:29:32.616Z,75.70
2022-11-30T09:32:00.628Z,75.78
2022-11-30T09:34:28.777Z,75.77
2022-11-30T09:36:56.921Z,75.84
2022-11-30T09:39:25.262Z,75.85
2022-11-30T09:42:50.575Z,75.56
2022-11-30T09:45:30.649Z,75.85
2022-11-30T09:47:59.077Z,75.74
2022-11-30T09:50:32.286Z,75.95
2022-11-30T09:53:10.821Z,75.90
2022-11-30T09:55:43.838Z,75.96
2022-11-30T09:58:50.977Z,76.01
2022-11-30T10:01:20.962Z,76.02
2022-11-30T10:03:49.789Z,75.84
2022-11-30T10:06:25.683Z,75.81
2022-11-30T10:09:02.711Z,75.94
2022-11-30T10:11:30.674Z,76.16
2022-11-30T10:14:26.242Z,76.25
2022-11-30T10:17:18.469Z,76.33
2022-11-30T10:20:05.259Z,76.00
2022-11-30T10:22:35.975Z,76.30
2022-11-30T10:25:30.263Z,75.97
2022-11-30T10:28:30.880Z,76.09
2022-11-30T10:30:55.506Z,75.86
2022-11-30T10:33:37.036Z,75.88
2022-11-30T10:36:13.300Z,75.86
2022-11-30T10:38:44.363Z,75.82
2022-11-30T10:41:18.194Z,75.78
2022-11-30T10:43:49.383Z,75.92
2022-11-30T10:46:31.412Z,75.84
2022-11-30T10:49:17.090Z,75.56
2022-11-30T10:51:56.844Z,75.59
2022-11-30T10:54:24.925Z,75.67
2022-11-30T10:56:53.199Z,75.76
2022-11-30T10:59:30.160Z,75.58
2022-11-30T11:01:58.298Z,75.72
2022-11-30T11:04:28.054Z,75.81
2022-11-30T11:07:14.903Z,75.70
2022-11-30T11:09:50.564Z,75.36
2022-11-30T11:12:25.140Z,75.25
2022-11-30T11:15:15.283Z,75.14
2022-11-30T11:17:43.358Z,75.71
2022-11-30T11:20:31.575Z,75.59
2022-11-30T11:23:00.099Z,75.45
2022-11-30T11:25:32.956Z,75.55
2022-11-30T11:28:08.938Z,75.57
2022-11-30T11:30:38.065Z,75.70
2022-11-30T11:33:14.776Z,75.57
2022-11-30T11:35:46.609Z,75.34
2022-11-30T11:38:23.849Z,75.54
2022-11-30T11:40:56.351Z,75.33
2022-11-30T11:43:27.525Z,75.03
2022-11-30T11:46:01.888Z,75.26
2022-11-30T11:48:38.668Z,75.41
2022-11-30T11:51:09.408Z,75.42
2022-11-30T11:53:48.708Z,75.15
2022-11-30T11:56:26.713Z,75.28
2022-11-30T11:59:03.250Z,75.55
2022-11-30T12:01:40.644Z,75.74
2022-11-30T12:04:35.618Z,75.69
2022-11-30T12:07:17.947Z,75.42
2022-11-30T12:10:50.749Z,75.51
2022-11-30T12:13:24.726Z,75.31
2022-11-30T12:16:05.139Z,75.30
2022-11-30T12:18:58.140Z,75.37
2022-11-30T12:21:52.247Z,75.20
2022-11-30T12:24:26.061Z,74.89
2022-11-30T12:27:03.561Z,74.98
2022-11-30T12:29:49.882Z,75.20
2022-11-30T12:32:57.495Z,75.52
2022-11-30T12:35:27.208Z,75.14
2022-11-30T12:38:16.181Z,75.20
2022-11-30T12:41:07.816Z,75.29
2022-11-30T12:43:55.663Z,75.41
2022-11-30T12:46:41.889Z,75.40
2022-11-30T12:49:26.501Z,75.55
2022-11-30T12:52:25.027Z,75.18
2022-11-30T12:54:59.115Z,74.76
2022-11-30T12:57:38.569Z,75.01
2022-11-30T13:00:26.951Z,75.11
2022-11-30T13:02:58.046Z,75.20
2022-11-30T13:05:40.826Z,75.34
2022-11-30T13:08:20.312Z,75.21
2022-11-30T13:11:03.694Z,75.00
2022-11-30T13:13:34.257Z,75.17
2022-11-30T13:16:06.019Z,75.38
2022-11-30T13:18:35.012Z,75.51
2022-11-30T13:21:23.462Z,75.56
2022-11-30T13:24:42.789Z,75.54
2022-11-30T13:27:20.246Z,75.20
2022-11-30T13:29:56.207Z,75.47
2022-11-30T13:32:56.749Z,75.50
2022-11-30T13:35:28.899Z,75.26
2022-11-30T13:38:35.643Z,75.38
2022-11-30T13:41:05.899Z,75.55
2022-11-30T13:43:52.235Z,75.46
2022-11-30T13:46:24.173Z,75.32
2022-11-30T13:49:35.931Z,75.57
2022-11-30T13:52:23.311Z,75.31
2022-11-30T13:54:58.398Z,75.23
2022-11-30T13:57:29.209Z,75.33
2022-11-30T13:59:59.875Z,75.46
2022-11-30T14:02:34.282Z,75.62
2022-11-30T14:05:20.301Z,75.54
2022-11-30T14:08:00.762Z,75.77
2022-11-30T14:10:38.037Z,75.56
2022-11-30T14:13:30.017Z,75.51
2022-11-30T14:16:00.811Z,75.51
2022-11-30T14:18:42.826Z,75.72
2022-11-30T14:21:22.293Z,75.44
2022-11-30T14:24:06.859Z,75.33
2022-11-30T14:26:43.658Z,75.64
2022-11-30T14:29:20.078Z,75.51
2022-11-30T14:31:48.228Z,75.46
2022-11-30T14:34:21.535Z,75.41
2022-11-30T14:36:58.370Z,75.37
2022-11-30T14:39:27.994Z,75.48
2022-11-30T14:41:56.209Z,75.34
2022-11-30T14:44:24.269Z,75.71
2022-11-30T14:46:52.511Z,75.68
2022-11-30T14:49:23.638Z,75.44
2022-11-30T14:52:02.665Z,75.46
2022-11-30T14:55:10.883Z,75.62
2022-11-30T14:58:20.130Z,75.67
2022-11-30T15:00:49.449Z,75.73
2022-11-30T15:03:23.494Z,75.49
2022-11-30T15:05:54.892Z,75.59
2022-11-30T15:08:24.492Z,75.84
2022-11-30T15:10:56.641Z,75.78
2022-11-30T15:13:24.790Z,75.49
2022-11-30T15:15:55.325Z,75.44
2022-11-30T15:18:25.232Z,75.64
2022-11-30T15:21:02.351Z,75.71
2022-11-30T15:23:30.476Z,75.49
2022-11-30T15:26:14.482Z,75.75
2022-11-30T15:28:47.426Z,75.58
2022-11-30T15:31:17.217Z,75.41
2022-11-30T15:33:47.802Z,75.61
2022-11-30T15:36:31.911Z,75.86
2022-11-30T15:39:07.222Z,75.74
2022-11-30T15:41:36.356Z,75.61
2022-11-30T15:44:04.579Z,75.52
2022-11-30T15:46:44.515Z,75.54
2022-11-30T15:49:27.890Z,75.62
2022-11-30T15:52:04.358Z,75.60
2022-11-30T15:54:55.446Z,75.69
2022-11-30T15:57:25.431Z,75.87
2022-11-30T16:00:09.146Z,75.73
2022-11-30T16:02:38.064Z,75.71
2022-11-30T16:05:14.684Z,75.72
2022-11-30T16:08:00.135Z,75.88
2022-11-30T16:10:38.898Z,75.82
2022-11-30T16:13:06.959Z,75.64
2022-11-30T16:15:37.046Z,75.51
2022-11-30T16:18:22.275Z,75.67
2022-11-30T16:20:53.938Z,75.81
2022-11-30T16:23:22.411Z,75.81
2022-11-30T16:25:51.020Z,75.78
2022-11-30T16:28:21.031Z,75.85
2022-11-30T16:30:50.190Z,75.89
2022-11-30T16:33:23.210Z,75.70
2022-11-30T16:36:01.554Z,75.72
2022-11-30T16:38:29.702Z,75.52
2022-11-30T16:41:14.061Z,75.30
2022-11-30T16:43:43.309Z,75.53
2022-11-30T16:46:19.631Z,75.63
2022-11-30T16:48:49.010Z,75.72
2022-11-30T16:51:27.574Z,75.62
2022-11-30T16:53:56.114Z,75.64
2022-11-30T16:56:24.913Z,75.52
2022-11-30T16:58:53.370Z,75.67
2022-11-30T17:01:35.506Z,75.85
2022-11-30T17:04:26.163Z,75.73
2022-11-30T17:07:00.441Z,75.57
2022-11-30T17:09:30.685Z,75.60
2022-11-30T17:11:58.754Z,75.73
2022-11-30T17:14:26.759Z,75.76
2022-11-30T17:16:54.948Z,75.71
2022-11-30T17:19:23.046Z,75.66
2022-11-30T17:21:51.110Z,75.72
2022-11-30T17:24:19.267Z,75.74
2022-11-30T17:26:47.396Z,75.65
2022-11-30T17:29:15.520Z,75.66
2022-11-30T17:31:43.546Z,75.60
2022-11-30T17:34:11.572Z,75.50
2022-11-30T17:36:39.653Z,75.57
2022-11-30T17:39:09.124Z,75.54
2022-11-30T17:41:37.163Z,75.73
2022-11-30T17:44:05.205Z,75.81
2022-11-30T17:46:33.280Z,76.01
2022-11-30T17:49:01.299Z,75.74
2022-11-30T17:51:29.559Z,75.81
2022-11-30T17:53:58.048Z,75.98
2022-11-30T17:56:28.689Z,75.97
2022-11-30T17:58:56.739Z,75.86
2022-11-30T18:01:26.854Z,75.67
2022-11-30T18:03:56.518Z,75.75
2022-11-30T18:06:24.955Z,75.87
2022-11-30T18:08:55.807Z,75.87
2022-11-30T18:11:26.224Z,75.73
2022-11-30T18:13:56.352Z,75.76
2022-11-30T18:16:27.096Z,75.70
2022-11-30T18:18:57.704Z,75.62
2022-11-30T18:21:29.040Z,75.53
2022-11-30T18:23:58.389Z,75.53
2022-11-30T18:26:27.520Z,75.82
2022-11-30T18:28:57.943Z,75.92
2022-11-30T18:31:28.086Z,75.57
2022-11-30T18:34:05.301Z,75.57
2022-11-30T18:36:34.588Z,75.76
2022-11-30T18:39:03.130Z,75.98
2022-11-30T18:41:31.222Z,76.06
2022-11-30T18:43:59.308Z,76.19
2022-11-30T18:46:27.724Z,76.15
2022-11-30T18:48:56.571Z,76.18
2022-11-30T18:51:27.762Z,76.08
2022-11-30T18:53:58.646Z,75.89
2022-11-30T18:56:30.080Z,75.69
2022-11-30T18:59:00.951Z,75.87
2022-11-30T19:01:30.686Z,75.99
2022-11-30T19:04:02.591Z,76.20
2022-11-30T19:06:33.528Z,76.17
2022-11-30T19:09:05.492Z,76.37
2022-11-30T19:11:34.614Z,76.44
2022-11-30T19:14:04.105Z,76.78
2022-11-30T19:16:37.452Z,76.44
2022-11-30T19:19:08.335Z,76.26
2022-11-30T19:21:37.311Z,76.32
2022-11-30T19:24:07.001Z,76.46
2022-11-30T19:26:36.700Z,76.73
2022-11-30T19:29:05.732Z,76.75
2022-11-30T19:31:34.929Z,76.64
2022-11-30T19:34:09.093Z,76.62
2022-11-30T19:36:41.525Z,76.79
2022-11-30T19:39:11.283Z,76.66
2022-11-30T19:41:40.335Z,76.72
2022-11-30T19:44:14.541Z,77.02
2022-11-30T19:46:43.447Z,76.92
2022-11-30T19:49:12.556Z,76.97
2022-11-30T19:51:42.096Z,77.17
2022-11-30T19:54:11.984Z,77.22
2022-11-30T19:56:43.164Z,77.37
2022-11-30T19:59:11.855Z,77.28
2022-11-30T20:01:40.617Z,77.27
2022-11-30T20:04:09.403Z,77.20
2022-11-30T20:06:39.051Z,77.01
2022-11-30T20:09:09.330Z,77.01
2022-11-30T20:11:37.844Z,77.40
2022-11-30T20:14:06.200Z,77.23
2022-11-30T20:16:34.363Z,77.43
2022-11-30T20:19:03.294Z,77.43
2022-11-30T20:21:34.723Z,77.52
2022-11-30T20:24:07.193Z,77.30
2022-11-30T20:26:38.384Z,77.31
2022-11-30T20:29:08.519Z,77.32
2022-11-30T20:31:37.716Z,77.48
2022-11-30T20:34:08.344Z,77.27
2022-11-30T20:36:37.239Z,77.44
2022-11-30T20:39:06.204Z,77.25
2022-11-30T20:41:34.516Z,77.22
2022-11-30T20:44:03.094Z,77.17
2022-11-30T20:46:33.762Z,77.17
2022-11-30T20:49:03.563Z,77.01
2022-11-30T20:51:36.609Z,77.02
2022-11-30T20:54:07.295Z,77.15
2022-11-30T20:56:37.516Z,77.04
2022-11-30T20:59:09.397Z,77.08
2022-11-30T21:01:37.544Z,77.11
2022-11-30T21:04:05.645Z,77.11
2022-11-30T21:06:33.775Z,77.08
2022-11-30T21:09:02.023Z,76.98
2022-11-30T21:11:31.323Z,76.94
2022-11-30T21:13:59.683Z,76.78
2022-11-30T21:16:29.764Z,76.70
2022-11-30T21:19:00.001Z,76.86
2022-11-30T21:21:33.465Z,76.97
2022-11-30T21:24:04.030Z,76.90
2022-11-30T21:26:34.699Z,77.01
2022-11-30T21:29:07.068Z,76.96
2022-11-30T21:31:35.974Z,76.93
2022-11-30T21:34:04.103Z,76.93
2022-11-30T21:36:32.554Z,76.69
2022-11-30T21:39:06.036Z,76.81
2022-11-30T21:41:37.733Z,76.89
2022-11-30T21:44:08.317Z,76.96
2022-11-30T21:46:36.446Z,76.97
2022-11-30T21:49:04.900Z,77.00
2022-11-30T21:51:33.618Z,76.90
2022-11-30T21:54:05.307Z,76.87
2022-11-30T21:56:36.130Z,76.92
2022-11-30T21:59:07.610Z,76.80
2022-11-30T22:01:38.701Z,76.71
2022-11-30T22:04:09.450Z,76.83
2022-11-30T22:06:39.493Z,76.89
2022-11-30T22:09:12.699Z,77.01
2022-11-30T22:11:42.981Z,76.92
2022-11-30T22:14:14.098Z,77.01
2022-11-30T22:16:42.626Z,76.86
2022-11-30T22:19:11.264Z,76.91
2022-11-30T22:21:39.771Z,77.01
2022-11-30T22:24:11.116Z,76.87
2022-11-30T22:26:44.295Z,76.73
2022-11-30T22:29:15.650Z,77.04
2022-11-30T22:31:45.767Z,77.06
2022-11-30T22:34:14.081Z,77.17
2022-11-30T22:36:43.620Z,77.12
2022-11-30T22:39:14.683Z,77.15
2022-11-30T22:41:45.278Z,77.07
2022-11-30T22:44:15.521Z,77.08
2022-11-30T22:46:44.734Z,76.81
2022-11-30T22:49:20.297Z,77.09
2022-11-30T22:51:49.888Z,77.08
2022-11-30T22:54:18.560Z,77.11
2022-11-30T22:56:47.001Z,77.16
2022-11-30T22:59:15.975Z,77.24
2022-11-30T23:01:47.181Z,77.14
2022-11-30T23:04:18.482Z,77.16
2022-11-30T23:06:48.434Z,77.19
2022-11-30T23:09:19.616Z,77.15
2022-11-30T23:11:48.615Z,77.23
2022-11-30T23:14:17.462Z,77.31
2022-11-30T23:16:46.172Z,77.29
2022-11-30T23:19:15.419Z,77.34
2022-11-30T23:21:47.181Z,77.26
2022-11-30T23:24:20.430Z,77.35
2022-11-30T23:26:49.314Z,77.37
2022-11-30T23:29:18.235Z,77.34
2022-11-30T23:31:47.645Z,77.18
2022-11-30T23:34:19.871Z,77.10
2022-11-30T23:36:49.099Z,77.27
2022-11-30T23:39:18.702Z,77.37
2022-11-30T23:41:46.868Z,77.34
2022-11-30T23:44:15.149Z,77.39
2022-11-30T23:46:43.400Z,77.50
2022-11-30T23:49:14.145Z,77.37
2022-11-30T23:51:43.127Z,77.19
2022-11-30T23:54:11.164Z,77.40
2022-11-30T23:56:39.183Z,77.51
2022-11-30T23:59:07.214Z,77.60
